createdAt,value
2018-05-25T00:01:52.001Z,95225.98
2018-05-25T00:04:18.593Z,95224.01
2018-05-25T00:06:45.112Z,95232.19
2018-05-25T00:09:11.753Z,95221.87
2018-05-25T00:11:38.418Z,95230.73
2018-05-25T00:14:05.233Z,95232.34
2018-05-25T00:16:31.817Z,95228.66
2018-05-25T00:18:58.468Z,95232.66
2018-05-25T00:21:25.058Z,95227.98
2018-05-25T00:23:51.709Z,95222.36
2018-05-25T00:26:18.459Z,95221.30
2018-05-25T00:28:44.980Z,95222.61
2018-05-25T00:31:11.618Z,95222.61
2018-05-25T00:33:38.384Z,95221.25
2018-05-25T00:36:05.014Z,95222.70
2018-05-25T00:38:31.525Z,95224.69
2018-05-25T00:40:58.323Z,95223.02
2018-05-25T00:43:25.652Z,95224.23
2018-05-25T00:45:52.362Z,95219.89
2018-05-25T00:50:52.421Z,95219.36
2018-05-25T00:53:19.110Z,95223.42
2018-05-25T00:55:45.662Z,95219.97
2018-05-25T00:58:12.599Z,95220.59
2018-05-25T01:00:39.161Z,95226.02
2018-05-25T01:03:05.768Z,95219.92
2018-05-25T01:05:32.252Z,95218.77
2018-05-25T01:07:59.054Z,95219.73
2018-05-25T01:10:25.702Z,95214.72
2018-05-25T01:12:52.234Z,95210.45
2018-05-25T01:15:18.789Z,95212.63
2018-05-25T01:17:45.533Z,95209.14
2018-05-25T01:20:12.169Z,95205.23
2018-05-25T01:22:39.040Z,95207.22
2018-05-25T01:25:05.551Z,95208.73
2018-05-25T01:27:32.248Z,95205.09
2018-05-25T01:29:59.077Z,95205.78
2018-05-25T01:32:25.748Z,95207.52
2018-05-25T01:34:52.436Z,95205.27
2018-05-25T01:37:19.090Z,95198.02
2018-05-25T01:39:45.685Z,95205.81
2018-05-25T01:42:12.345Z,95206.48
2018-05-25T01:44:39.081Z,95207.30
2018-05-25T01:47:05.698Z,95207.02
2018-05-25T01:49:32.293Z,95210.83
2018-05-25T01:51:58.820Z,95219.38
2018-05-25T01:54:25.468Z,95212.08
2018-05-25T01:56:52.027Z,95222.53
2018-05-25T01:59:18.741Z,95216.86
2018-05-25T02:01:45.286Z,95220.66
2018-05-25T02:04:12.117Z,95213.31
2018-05-25T02:06:38.629Z,95212.80
2018-05-25T02:09:05.248Z,95208.44
2018-05-25T02:11:31.968Z,95214.55
2018-05-25T02:13:58.532Z,95208.53
2018-05-25T02:16:25.220Z,95212.48
2018-05-25T02:18:51.974Z,95205.73
2018-05-25T02:21:18.636Z,95201.17
2018-05-25T02:23:45.301Z,95204.25
2018-05-25T02:26:11.887Z,95201.66
2018-05-25T02:28:38.432Z,95214.52
2018-05-25T02:31:05.089Z,95206.48
2018-05-25T02:33:31.715Z,95215.19
2018-05-25T02:35:58.305Z,95213.02
2018-05-25T02:38:24.973Z,95218.52
2018-05-25T02:40:51.586Z,95220.09
2018-05-25T02:43:18.337Z,95224.41
2018-05-25T02:45:44.860Z,95224.86
2018-05-25T02:48:12.169Z,95220.94
2018-05-25T02:50:38.812Z,95226.97
2018-05-25T02:53:05.513Z,95228.73
2018-05-25T02:55:32.236Z,95223.80
2018-05-25T02:57:58.943Z,95227.23
2018-05-25T03:00:25.596Z,95230.95
2018-05-25T03:02:53.045Z,95237.69
2018-05-25T03:05:19.961Z,95235.31
2018-05-25T03:07:46.589Z,95232.33
2018-05-25T03:10:13.175Z,95234.92
2018-05-25T03:12:41.788Z,95240.31
2018-05-25T03:15:08.352Z,95236.31
2018-05-25T03:17:35.909Z,95235.04
2018-05-25T03:20:04.436Z,95237.15
2018-05-25T03:22:32.198Z,95236.05
2018-05-25T03:25:00.086Z,95243.45
2018-05-25T03:27:26.975Z,95245.91
2018-05-25T03:29:54.205Z,95247.66
2018-05-25T03:32:27.964Z,95245.81
2018-05-25T03:35:00.073Z,95246.48
2018-05-25T03:37:30.833Z,95244.08
2018-05-25T03:39:57.836Z,95244.97
2018-05-25T03:42:25.245Z,95243.48
2018-05-25T03:44:51.853Z,95247.41
2018-05-25T03:47:18.568Z,95249.66
2018-05-25T03:49:45.046Z,95252.52
2018-05-25T03:52:11.693Z,95251.91
2018-05-25T03:54:38.420Z,95247.45
2018-05-25T03:57:05.025Z,95252.94
2018-05-25T03:59:43.752Z,95251.27
2018-05-25T04:02:10.353Z,95255.07
2018-05-25T04:04:36.892Z,95253.52
2018-05-25T04:07:03.394Z,95251.14
2018-05-25T04:09:29.944Z,95262.44
2018-05-25T04:11:56.572Z,95259.60
2018-05-25T04:14:23.154Z,95263.73
2018-05-25T04:16:49.718Z,95262.70
2018-05-25T04:19:16.473Z,95269.15
2018-05-25T04:21:43.040Z,95266.75
2018-05-25T04:24:09.560Z,95263.16
2018-05-25T04:26:36.117Z,95264.38
2018-05-25T04:29:02.697Z,95255.67
2018-05-25T04:31:29.291Z,95259.12
2018-05-25T04:33:56.001Z,95255.87
2018-05-25T04:36:29.556Z,95253.20
2018-05-25T04:38:56.284Z,95261.11
2018-05-25T04:41:23.152Z,95262.24
2018-05-25T04:43:50.080Z,95255.23
2018-05-25T04:46:16.689Z,95256.95
2018-05-25T04:48:43.260Z,95253.95
2018-05-25T04:51:09.826Z,95260.61
2018-05-25T04:53:36.481Z,95262.36
2018-05-25T04:56:03.093Z,95259.42
2018-05-25T04:58:29.633Z,95257.27
2018-05-25T05:00:56.337Z,95258.22
2018-05-25T05:03:22.884Z,95254.16
2018-05-25T05:05:49.493Z,95255.89
2018-05-25T05:08:16.413Z,95248.67
2018-05-25T05:10:43.047Z,95250.81
2018-05-25T05:13:09.704Z,95253.35
2018-05-25T05:15:36.416Z,95257.69
2018-05-25T05:18:03.111Z,95244.20
2018-05-25T05:20:29.613Z,95246.07
2018-05-25T05:22:56.325Z,95249.06
2018-05-25T05:25:23.053Z,95253.31
2018-05-25T05:27:49.725Z,95249.92
2018-05-25T05:30:16.324Z,95251.87
2018-05-25T05:32:42.810Z,95245.47
2018-05-25T05:35:09.397Z,95249.64
2018-05-25T05:37:35.872Z,95257.86
2018-05-25T05:40:02.519Z,95256.52
2018-05-25T05:42:29.056Z,95262.29
2018-05-25T05:44:55.586Z,95266.53
2018-05-25T05:47:22.208Z,95269.13
2018-05-25T05:49:48.890Z,95271.20
2018-05-25T05:52:15.472Z,95266.67
2018-05-25T05:54:42.220Z,95262.69
2018-05-25T05:57:08.897Z,95267.41
2018-05-25T05:59:35.514Z,95267.40
2018-05-25T06:02:02.229Z,95265.27
2018-05-25T06:04:28.780Z,95273.59
2018-05-25T06:06:55.266Z,95268.78
2018-05-25T06:09:21.864Z,95273.51
2018-05-25T06:11:48.421Z,95270.39
2018-05-25T06:14:14.998Z,95271.08
2018-05-25T06:16:41.509Z,95267.59
2018-05-25T06:19:08.265Z,95271.43
2018-05-25T06:21:34.961Z,95267.86
2018-05-25T06:24:01.568Z,95266.34
2018-05-25T06:26:28.043Z,95262.27
2018-05-25T06:28:54.603Z,95271.00
2018-05-25T06:31:21.072Z,95263.02
2018-05-25T06:33:47.457Z,95268.83
2018-05-25T06:36:14.064Z,95262.61
2018-05-25T06:38:40.749Z,95265.13
2018-05-25T06:41:07.412Z,95267.50
2018-05-25T06:43:34.140Z,95265.30
2018-05-25T06:46:00.904Z,95263.61
2018-05-25T06:48:27.634Z,95263.56
2018-05-25T06:50:54.385Z,95266.06
2018-05-25T06:53:20.930Z,95262.96
2018-05-25T06:55:47.840Z,95258.35
2018-05-25T06:58:18.098Z,95259.77
2018-05-25T07:00:45.293Z,95259.02
2018-05-25T07:03:12.106Z,95261.69
2018-05-25T07:05:38.908Z,95253.42
2018-05-25T07:08:05.648Z,95258.86
2018-05-25T07:10:32.308Z,95254.77
2018-05-25T07:12:59.194Z,95260.80
2018-05-25T07:15:26.534Z,95254.56
2018-05-25T07:17:53.110Z,95248.22
2018-05-25T07:20:19.945Z,95251.38
2018-05-25T07:22:46.729Z,95248.95
2018-05-25T07:25:13.343Z,95243.55
2018-05-25T07:27:39.866Z,95245.45
2018-05-25T07:30:06.410Z,95246.61
2018-05-25T07:32:32.978Z,95246.59
2018-05-25T07:35:00.552Z,95246.94
2018-05-25T07:37:27.342Z,95249.47
2018-05-25T07:39:53.903Z,95243.07
2018-05-25T07:42:20.688Z,95241.09
2018-05-25T07:44:47.430Z,95242.34
2018-05-25T07:47:14.196Z,95246.52
2018-05-25T07:49:41.028Z,95249.41
2018-05-25T07:52:07.804Z,95235.90
2018-05-25T07:54:34.405Z,95241.84
2018-05-25T07:57:01.730Z,95237.47
2018-05-25T07:59:29.278Z,95233.95
2018-05-25T08:01:58.313Z,95229.86
2018-05-25T08:04:26.688Z,95225.55
2018-05-25T08:06:54.310Z,95229.39
2018-05-25T08:09:21.096Z,95224.55
2018-05-25T08:11:47.724Z,95221.35
2018-05-25T08:14:14.520Z,95219.08
2018-05-25T08:16:41.846Z,95212.82
2018-05-25T08:23:43.052Z,95222.37
2018-05-25T08:26:10.578Z,95219.22
2018-05-25T08:28:37.049Z,95216.40
2018-05-25T08:31:03.684Z,95215.03
2018-05-25T08:33:30.370Z,95217.13
2018-05-25T08:35:56.909Z,95211.27
2018-05-25T08:38:23.548Z,95211.89
2018-05-25T08:40:50.224Z,95213.94
2018-05-25T08:43:16.955Z,95211.47
2018-05-25T08:45:44.349Z,95214.34
2018-05-25T08:48:11.032Z,95215.27
2018-05-25T08:50:38.227Z,95207.98
2018-05-25T08:53:05.081Z,95213.91
2018-05-25T08:55:31.888Z,95216.92
2018-05-25T08:57:59.219Z,95208.05
2018-05-25T09:00:26.436Z,95207.98
2018-05-25T09:02:53.018Z,95215.47
2018-05-25T09:05:19.826Z,95208.14
2018-05-25T09:07:46.808Z,95203.10
2018-05-25T09:10:13.661Z,95206.77
2018-05-25T09:12:40.356Z,95205.86
2018-05-25T09:15:07.116Z,95208.40
2018-05-25T09:17:35.047Z,95206.21
2018-05-25T09:20:02.048Z,95197.98
2018-05-25T09:22:28.600Z,95200.02
2018-05-25T09:24:55.181Z,95190.00
2018-05-25T09:27:21.882Z,95191.86
2018-05-25T09:29:48.555Z,95196.54
2018-05-25T09:32:15.424Z,95202.27
2018-05-25T09:34:42.286Z,95191.41
2018-05-25T09:37:08.969Z,95191.57
2018-05-25T09:39:35.702Z,95186.11
2018-05-25T09:42:03.065Z,95186.53
2018-05-25T09:44:29.727Z,95183.84
2018-05-25T09:46:56.496Z,95185.50
2018-05-25T09:49:23.362Z,95173.30
2018-05-25T09:51:49.895Z,95182.95
2018-05-25T09:54:16.587Z,95176.28
2018-05-25T09:56:55.477Z,95192.47
2018-05-25T09:59:22.060Z,95171.47
2018-05-25T10:01:48.703Z,95167.66
2018-05-25T10:04:15.259Z,95182.92
2018-05-25T10:06:41.829Z,95179.89
2018-05-25T10:09:08.505Z,95174.13
2018-05-25T10:11:35.167Z,95169.62
2018-05-25T10:14:01.817Z,95157.35
2018-05-25T10:16:28.436Z,95166.10
2018-05-25T10:18:55.116Z,95159.03
2018-05-25T10:21:21.712Z,95148.42
2018-05-25T10:23:48.396Z,95146.84
2018-05-25T10:26:15.270Z,95142.66
2018-05-25T10:28:41.995Z,95146.58
2018-05-25T10:31:08.733Z,95146.57
2018-05-25T10:33:35.579Z,95144.02
2018-05-25T10:36:02.150Z,95139.73
2018-05-25T10:38:28.761Z,95137.22
2018-05-25T10:40:55.562Z,95140.35
2018-05-25T10:43:22.279Z,95148.92
2018-05-25T10:45:48.985Z,95138.88
2018-05-25T10:48:15.722Z,95142.12
2018-05-25T10:50:42.685Z,95134.28
2018-05-25T10:53:12.099Z,95143.11
2018-05-25T10:55:38.712Z,95131.23
2018-05-25T10:58:07.341Z,95138.13
2018-05-25T11:00:34.014Z,95129.34
2018-05-25T11:03:00.595Z,95132.67
2018-05-25T11:05:27.338Z,95126.27
2018-05-25T11:07:54.026Z,95131.23
2018-05-25T11:10:20.642Z,95140.38
2018-05-25T11:12:47.378Z,95138.45
2018-05-25T11:15:13.970Z,95135.09
2018-05-25T11:17:40.488Z,95126.88
2018-05-25T11:20:08.066Z,95126.82
2018-05-25T11:22:34.677Z,95129.52
2018-05-25T11:25:01.370Z,95154.68
2018-05-25T11:27:28.259Z,95145.25
2018-05-25T11:29:54.999Z,95141.62
2018-05-25T11:32:21.749Z,95130.48
2018-05-25T11:34:48.687Z,95126.55
2018-05-25T11:37:15.772Z,95135.86
2018-05-25T11:39:42.492Z,95132.97
2018-05-25T11:42:09.584Z,95128.51
2018-05-25T11:44:36.315Z,95129.13
2018-05-25T11:47:02.991Z,95137.22
2018-05-25T11:49:30.368Z,95122.61
2018-05-25T11:51:57.007Z,95127.70
2018-05-25T11:54:23.812Z,95124.91
2018-05-25T11:59:24.793Z,95132.97
2018-05-25T12:01:51.896Z,95138.96
2018-05-25T12:04:19.580Z,95141.91
2018-05-25T12:06:47.127Z,95149.61
2018-05-25T12:09:19.336Z,95143.03
2018-05-25T12:11:46.166Z,95131.55
2018-05-25T12:14:12.825Z,95129.00
2018-05-25T12:16:39.740Z,95149.20
2018-05-25T12:19:07.573Z,95153.11
2018-05-25T12:21:34.566Z,95170.38
2018-05-25T12:24:03.121Z,95170.79
2018-05-25T12:26:30.649Z,95172.15
2018-05-25T12:28:58.464Z,95176.25
2018-05-25T12:31:32.800Z,95186.11
2018-05-25T12:33:59.636Z,95169.28
2018-05-25T12:36:26.220Z,95159.67
2018-05-25T12:38:53.306Z,95159.30
2018-05-25T12:41:22.371Z,95156.67
2018-05-25T12:43:49.421Z,95143.53
2018-05-25T12:46:18.138Z,95138.75
2018-05-25T12:48:46.213Z,95139.59
2018-05-25T12:51:18.112Z,95136.59
2018-05-25T12:53:52.460Z,95137.69
2018-05-25T12:56:21.148Z,95138.67
2018-05-25T12:58:53.409Z,95146.63
2018-05-25T13:01:23.886Z,95136.50
2018-05-25T13:04:00.790Z,95134.84
2018-05-25T13:06:34.478Z,95135.85
2018-05-25T13:09:01.413Z,95141.89
2018-05-25T13:11:28.455Z,95145.48
2018-05-25T13:13:56.667Z,95149.91
2018-05-25T13:16:26.141Z,95143.14
2018-05-25T13:18:54.985Z,95140.45
2018-05-25T13:21:24.254Z,95153.55
2018-05-25T13:23:55.795Z,95167.49
2018-05-25T13:26:34.106Z,95146.13
2018-05-25T13:29:04.262Z,95149.72
2018-05-25T13:31:32.035Z,95154.48
2018-05-25T13:33:58.884Z,95159.27
2018-05-25T13:36:25.948Z,95151.78
2018-05-25T13:38:52.756Z,95158.19
2018-05-25T13:41:19.500Z,95157.30
2018-05-25T13:43:47.594Z,95154.61
2018-05-25T13:46:16.560Z,95142.72
2018-05-25T13:48:45.838Z,95142.79
2018-05-25T13:51:15.112Z,95144.13
2018-05-25T13:53:44.765Z,95139.23
2018-05-25T13:56:12.575Z,95147.91
2018-05-25T13:58:42.884Z,95148.08
2018-05-25T14:01:10.924Z,95150.09
2018-05-25T14:03:40.010Z,95152.64
2018-05-25T14:06:08.236Z,95163.89
2018-05-25T14:08:36.620Z,95168.29
2018-05-25T14:11:04.414Z,95175.35
2018-05-25T14:13:31.096Z,95178.70
2018-05-25T14:15:58.368Z,95172.73
2018-05-25T14:18:26.285Z,95171.64
2018-05-25T14:20:53.017Z,95176.91
2018-05-25T14:23:19.681Z,95181.72
2018-05-25T14:25:46.297Z,95182.53
2018-05-25T14:28:12.813Z,95187.98
2018-05-25T14:30:39.277Z,95182.94
2018-05-25T14:33:05.792Z,95180.58
2018-05-25T14:38:47.508Z,95184.02
2018-05-25T14:41:14.128Z,95185.08
2018-05-25T14:43:40.881Z,95185.26
2018-05-25T14:46:08.426Z,95187.86
2018-05-25T14:48:34.977Z,95196.17
2018-05-25T14:51:01.495Z,95191.41
2018-05-25T14:53:28.025Z,95185.77
2018-05-25T14:55:54.496Z,95186.53
2018-05-25T14:58:21.004Z,95186.49
2018-05-25T15:09:24.509Z,95192.03
2018-05-25T15:11:52.851Z,95190.30
2018-05-25T15:14:19.681Z,95183.73
2018-05-25T15:16:46.288Z,95176.32
2018-05-25T15:19:12.928Z,95169.45
2018-05-25T15:21:39.561Z,95168.06
2018-05-25T15:27:20.169Z,95175.83
2018-05-25T15:34:24.457Z,95171.98
2018-05-25T15:58:28.063Z,95207.48
2018-05-25T16:01:08.955Z,95208.55
2018-05-25T16:09:47.759Z,95203.78
2018-05-25T16:12:18.407Z,95205.13
2018-05-25T16:54:06.433Z,95244.61
2018-05-25T16:56:33.876Z,95243.11
2018-05-25T16:59:00.473Z,95238.52
2018-05-25T17:01:26.955Z,95242.63
2018-05-25T17:03:53.749Z,95248.44
2018-05-25T17:06:25.304Z,95250.17
2018-05-25T17:08:53.136Z,95244.14
2018-05-25T17:11:19.813Z,95245.12
2018-05-25T17:13:47.137Z,95250.45
2018-05-25T17:16:13.913Z,95243.75
2018-05-25T17:18:40.810Z,95245.36
2018-05-25T17:21:08.642Z,95240.15
2018-05-25T17:23:35.097Z,95240.48
2018-05-25T17:26:14.904Z,95244.55
2018-05-25T17:28:42.610Z,95242.61
2018-05-25T17:34:18.449Z,95251.09
2018-05-25T17:36:44.945Z,95246.86
2018-05-25T17:39:11.405Z,95247.27
2018-05-25T17:41:40.039Z,95252.48
2018-05-25T17:44:08.804Z,95255.38
2018-05-25T17:46:35.436Z,95267.49
2018-05-25T17:49:02.284Z,95276.22
2018-05-25T17:51:29.633Z,95282.27
2018-05-25T17:53:56.257Z,95300.81
2018-05-25T17:56:22.876Z,95307.03
2018-05-25T17:58:49.573Z,95316.81
2018-05-25T18:01:16.117Z,95328.70
2018-05-25T18:03:42.620Z,95341.88
2018-05-25T18:06:09.381Z,95340.12
2018-05-25T18:08:35.981Z,95356.63
2018-05-25T18:11:02.965Z,95360.83
2018-05-25T18:13:29.433Z,95367.84
2018-05-25T18:15:56.788Z,95367.42
2018-05-25T18:18:23.348Z,95379.31
2018-05-25T18:20:49.976Z,95376.47
2018-05-25T18:23:16.463Z,95374.10
2018-05-25T18:25:42.949Z,95378.97
2018-05-25T18:28:09.452Z,95382.52
2018-05-25T18:30:36.101Z,95379.33
2018-05-25T18:33:02.612Z,95377.39
2018-05-25T18:35:29.194Z,95374.59
2018-05-25T18:37:55.729Z,95382.36
2018-05-25T18:40:22.216Z,95387.27
2018-05-25T18:42:48.665Z,95401.05
2018-05-25T18:45:15.253Z,95425.08
2018-05-25T18:47:41.698Z,95432.50
2018-05-25T18:50:11.476Z,95445.15
2018-05-25T18:52:38.148Z,95451.35
2018-05-25T18:55:04.806Z,95468.94
2018-05-25T18:57:31.336Z,95478.41
2018-05-25T18:59:57.937Z,95465.50
2018-05-25T19:02:24.685Z,95465.16
2018-05-25T19:04:52.238Z,95466.20
2018-05-25T19:07:18.940Z,95475.48
2018-05-25T19:09:45.435Z,95477.90
2018-05-25T19:12:12.115Z,95475.02
2018-05-25T19:14:38.736Z,95475.98
2018-05-25T19:17:06.034Z,95474.01
2018-05-25T19:19:32.581Z,95465.37
2018-05-25T19:21:59.319Z,95471.84
2018-05-25T19:24:25.868Z,95467.67
2018-05-25T19:26:52.401Z,95463.23
2018-05-25T19:29:19.511Z,95452.72
2018-05-25T19:31:50.289Z,95456.98
2018-05-25T19:34:19.784Z,95460.25
2018-05-25T19:36:46.331Z,95450.33
2018-05-25T19:39:12.982Z,95454.11
2018-05-25T19:44:49.981Z,95438.69
2018-05-25T19:47:16.725Z,95446.67
2018-05-25T19:49:43.238Z,95441.39
2018-05-25T19:52:13.942Z,95428.05
2018-05-25T19:54:42.193Z,95428.17
2018-05-25T19:59:52.233Z,95429.50
2018-05-25T20:08:44.893Z,95432.83
2018-05-25T20:24:32.668Z,95445.13
2018-05-25T20:26:59.383Z,95439.41
2018-05-25T20:29:26.039Z,95436.96
2018-05-25T20:31:52.653Z,95430.35
2018-05-25T20:34:19.315Z,95428.20
2018-05-25T20:36:45.877Z,95426.05
2018-05-25T20:39:59.939Z,95430.13
2018-05-25T20:42:29.542Z,95435.53
2018-05-25T20:44:56.147Z,95442.98
2018-05-25T20:47:22.886Z,95450.30
2018-05-25T20:49:53.947Z,95445.98
2018-05-25T20:52:20.682Z,95449.39
2018-05-25T20:54:47.184Z,95447.45
2018-05-25T20:57:23.758Z,95450.42
2018-05-25T20:59:50.598Z,95452.70
2018-05-25T21:02:17.167Z,95448.56
2018-05-25T21:04:43.792Z,95452.23
2018-05-25T21:07:10.543Z,95452.03
2018-05-25T21:09:37.225Z,95449.70
2018-05-25T21:12:03.965Z,95458.69
2018-05-25T21:14:41.852Z,95461.80
2018-05-25T21:17:27.230Z,95473.42
2018-05-25T21:19:54.161Z,95474.13
2018-05-25T21:22:20.549Z,95480.36
2018-05-25T21:24:47.042Z,95479.63
2018-05-25T21:30:30.819Z,95477.70
2018-05-25T21:33:02.073Z,95483.21
2018-05-25T21:35:32.548Z,95474.66
2018-05-25T21:38:02.593Z,95473.36
2018-05-25T21:40:31.244Z,95471.00
2018-05-25T21:42:59.050Z,95475.38
2018-05-25T21:45:50.167Z,95477.78
2018-05-25T21:48:18.261Z,95473.04
2018-05-25T21:50:49.436Z,95478.64
2018-05-25T21:53:16.286Z,95480.89
2018-05-25T21:55:44.837Z,95469.47
2018-05-25T21:58:13.356Z,95470.89
2018-05-25T22:00:39.998Z,95472.00
2018-05-25T22:03:07.537Z,95476.41
2018-05-25T22:05:34.062Z,95475.59
2018-05-25T22:08:00.568Z,95480.87
2018-05-25T22:17:10.668Z,95488.67
2018-05-25T22:19:37.443Z,95487.00
2018-05-25T22:22:04.360Z,95490.27
2018-05-25T22:24:30.832Z,95490.29
2018-05-25T22:26:59.138Z,95488.48
2018-05-25T22:29:26.051Z,95482.83
2018-05-25T22:31:53.367Z,95481.02
2018-05-25T22:34:26.413Z,95480.63
2018-05-25T22:36:56.271Z,95485.69
2018-05-25T22:39:23.168Z,95479.68
2018-05-25T22:41:53.335Z,95482.48
2018-05-25T22:44:33.148Z,95484.23
2018-05-25T22:47:18.634Z,95481.29
2018-05-25T22:50:03.588Z,95483.83
2018-05-25T22:52:42.073Z,95487.80
2018-05-25T22:55:14.133Z,95487.02
2018-05-25T22:57:42.072Z,95490.95
2018-05-25T23:00:09.470Z,95491.13
2018-05-25T23:02:37.083Z,95495.09
2018-05-25T23:05:04.756Z,95491.27
2018-05-25T23:07:32.598Z,95483.41
2018-05-25T23:09:59.310Z,95485.66
2018-05-25T23:12:25.968Z,95499.34
2018-05-25T23:14:52.873Z,95494.16
2018-05-25T23:17:19.755Z,95503.62
2018-05-25T23:19:47.617Z,95500.77
2018-05-25T23:22:15.220Z,95495.62
2018-05-25T23:24:45.005Z,95501.88
2018-05-25T23:27:12.007Z,95495.31
2018-05-25T23:29:39.606Z,95504.29
2018-05-25T23:32:11.329Z,95497.07
2018-05-25T23:34:38.399Z,95495.75
2018-05-25T23:37:06.765Z,95494.05
2018-05-25T23:39:33.823Z,95498.50
2018-05-25T23:42:01.471Z,95493.78
2018-05-25T23:44:29.202Z,95498.45
2018-05-25T23:46:57.008Z,95492.83
2018-05-25T23:49:27.046Z,95485.55
2018-05-25T23:52:07.107Z,95487.44
2018-05-25T23:54:37.227Z,95487.75
2018-05-25T23:57:06.919Z,95492.77
2018-05-25T23:59:42.376Z,95489.98
